Time;durP1;ratioP1;P1;durP2;ratioP2;P2;SDS_P1;SDS_P2;PMS_P1;PMS_P2;Temp;Humidity;BMP_temperature;BMP_pressure;BME280_temperature;BME280_humidity;BME280_pressure;Samples;Min_cycle;Max_cycle;Signal;HPM_P1;HPM_P2
2023/04/21 00:00:10;;;;;;;8.63;7.93;;;;;;;12.61;100.00;98924.94;5107420;28;20199;-52
2023/04/21 00:02:57;;;;;;;9.77;8.70;;;;;;;12.69;100.00;98919.38;5107794;28;20592;-52
2023/04/21 00:08:48;;;;;;;9.23;8.33;;;;;;;12.64;100.00;98922.19;5107730;28;20267;-52
2023/04/21 00:11:18;;;;;;;14.30;8.97;;;;;;;12.54;100.00;98922.66;5107483;28;20195;-52
2023/04/21 00:14:09;;;;;;;9.63;8.73;;;;;;;12.48;100.00;98913.41;5109314;28;20195;-51
2023/04/21 00:17:05;;;;;;;9.87;8.87;;;;;;;12.38;100.00;98919.94;5107720;28;20201;-53
2023/04/21 00:22:40;;;;;;;11.37;9.97;;;;;;;12.48;100.00;98916.00;5105589;28;20213;-54
2023/04/21 00:25:27;;;;;;;14.70;9.70;;;;;;;12.53;100.00;98913.16;5105228;28;20194;-52
2023/04/21 00:28:19;;;;;;;12.43;9.77;;;;;;;12.50;100.00;98908.13;5106583;28;20222;-51
2023/04/21 00:34:03;;;;;;;12.47;9.77;;;;;;;12.44;100.00;98909.25;5109281;28;20207;-54
2023/04/21 00:37:01;;;;;;;14.13;10.90;;;;;;;12.31;100.00;98911.56;5106579;28;20624;-54
2023/04/21 00:39:57;;;;;;;14.30;10.73;;;;;;;12.11;100.00;98909.00;5108601;28;20214;-54
2023/04/21 00:42:39;;;;;;;15.70;11.83;;;;;;;12.00;100.00;98913.84;5108895;28;20658;-55
2023/04/21 00:45:40;;;;;;;15.73;11.77;;;;;;;11.93;100.00;98909.84;5108938;28;20190;-52
2023/04/21 00:48:46;;;;;;;16.70;11.93;;;;;;;11.83;100.00;98899.00;5108510;28;20269;-51
2023/04/21 00:51:22;;;;;;;18.03;13.50;;;;;;;11.75;100.00;98895.00;5103743;28;20201;-50
2023/04/21 00:57:14;;;;;;;15.60;13.30;;;;;;;11.80;100.00;98901.72;5107413;28;20202;-52
2023/04/21 00:59:57;;;;;;;17.30;12.87;;;;;;;11.89;100.00;98903.06;5103970;28;20194;-52
2023/04/21 01:03:02;;;;;;;15.90;12.97;;;;;;;11.86;100.00;98901.44;5108112;28;20187;-51
2023/04/21 01:05:54;;;;;;;13.83;12.43;;;;;;;11.80;100.00;98899.13;5108377;28;20193;-51
2023/04/21 01:08:43;;;;;;;14.20;12.53;;;;;;;11.83;100.00;98893.81;5107305;28;20820;-51
2023/04/21 01:11:37;;;;;;;16.20;12.90;;;;;;;11.74;100.00;98894.16;5106205;28;20244;-51
2023/04/21 01:14:27;;;;;;;15.57;13.13;;;;;;;11.76;100.00;98894.13;5106774;28;20230;-51
2023/04/21 01:17:14;;;;;;;16.33;13.07;;;;;;;11.71;100.00;98901.25;5103508;28;20195;-51
2023/04/21 01:20:10;;;;;;;15.00;13.30;;;;;;;11.68;100.00;98898.78;5105898;28;20620;-51
2023/04/21 01:23:11;;;;;;;21.63;14.20;;;;;;;11.68;100.00;98898.78;5105970;28;20209;-51
2023/04/21 01:25:51;;;;;;;14.70;13.10;;;;;;;11.71;100.00;98893.47;5106493;28;20202;-51
2023/04/21 01:28:39;;;;;;;14.43;12.70;;;;;;;11.59;100.00;98892.22;5107663;28;20195;-51
2023/04/21 01:31:38;;;;;;;16.13;13.40;;;;;;;11.51;100.00;98887.34;5104306;28;20194;-51
2023/04/21 01:34:27;;;;;;;15.73;13.40;;;;;;;11.55;100.00;98899.28;5106034;28;20191;-52
2023/04/21 01:37:21;;;;;;;16.17;14.03;;;;;;;11.50;100.00;98890.88;5108084;28;20677;-50
2023/04/21 01:40:23;;;;;;;17.13;13.70;;;;;;;11.43;100.00;98889.41;5108863;28;20190;-51
2023/04/21 01:43:05;;;;;;;13.57;12.17;;;;;;;11.41;100.00;98886.03;5108931;28;20194;-51
2023/04/21 01:45:55;;;;;;;15.13;13.53;;;;;;;11.40;100.00;98889.53;5109885;28;20290;-50
2023/04/21 01:48:50;;;;;;;14.77;13.17;;;;;;;11.34;100.00;98876.81;5111358;28;20281;-51
2023/04/21 01:51:47;;;;;;;15.37;13.50;;;;;;;11.39;100.00;98881.84;5109833;28;20511;-50
2023/04/21 01:54:33;;;;;;;14.30;12.80;;;;;;;11.31;100.00;98886.50;5107734;28;20198;-50
2023/04/21 01:57:28;;;;;;;17.10;12.80;;;;;;;11.19;100.00;98886.09;5108438;28;20540;-51
2023/04/21 02:00:19;;;;;;;17.00;13.13;;;;;;;11.10;100.00;98901.22;5109453;28;20198;-50
2023/04/21 02:03:21;;;;;;;14.67;13.13;;;;;;;11.00;100.00;98897.28;5110420;28;20202;-51
2023/04/21 02:06:07;;;;;;;15.13;13.37;;;;;;;10.90;100.00;98900.28;5111465;28;20197;-49
2023/04/21 02:09:06;;;;;;;20.67;14.83;;;;;;;11.00;100.00;98908.53;5108985;28;20218;-49
2023/04/21 02:12:05;;;;;;;19.90;14.47;;;;;;;11.00;100.00;98905.09;5108319;28;20258;-52
2023/04/21 02:15:08;;;;;;;16.17;14.20;;;;;;;10.93;100.00;98907.09;5107658;28;20203;-54
2023/04/21 02:17:56;;;;;;;16.20;13.23;;;;;;;10.90;100.00;98904.63;5109138;28;20205;-54
2023/04/21 02:21:02;;;;;;;;;;;;;;;;;;;;;
2023/04/21 02:23:50;;;;;;;18.50;12.80;;;;;;;10.80;100.00;98893.75;5108859;28;20190;-55
2023/04/21 02:26:39;;;;;;;13.60;12.20;;;;;;;10.74;100.00;98901.78;5108024;28;20190;-54
2023/04/21 02:29:22;;;;;;;16.30;11.87;;;;;;;10.67;100.00;98891.69;5110371;28;20187;-54
2023/04/21 02:32:20;;;;;;;17.40;13.03;;;;;;;10.60;100.00;98888.50;5108843;28;20722;-54
2023/04/21 02:35:05;;;;;;;13.33;11.97;;;;;;;10.61;100.00;98890.16;5107003;28;20191;-54
2023/04/21 02:38:00;;;;;;;15.33;12.00;;;;;;;10.63;100.00;98890.97;5108246;28;20198;-54
2023/04/21 02:40:34;;;;;;;12.67;11.33;;;;;;;10.68;100.00;98891.63;5110672;28;20295;-54
2023/04/21 02:43:28;;;;;;;13.40;12.00;;;;;;;10.68;100.00;98890.78;5108996;28;20240;-54
2023/04/21 02:46:18;;;;;;;13.43;11.87;;;;;;;10.67;100.00;98887.34;5109023;28;20202;-54
2023/04/21 02:49:10;;;;;;;15.17;11.27;;;;;;;10.56;100.00;98884.31;5110509;28;20191;-55
2023/04/21 02:51:55;;;;;;;12.67;11.00;;;;;;;10.58;100.00;98884.28;5109145;28;20586;-55
2023/04/21 02:54:47;;;;;;;12.60;10.57;;;;;;;10.48;100.00;98881.19;5109879;28;20195;-55
2023/04/21 02:57:28;;;;;;;11.33;9.80;;;;;;;10.40;100.00;98881.47;5109051;28;20221;-54
2023/04/21 03:00:06;;;;;;;14.87;11.07;;;;;;;10.41;100.00;98877.13;5108780;28;20774;-54
2023/04/21 03:02:57;;;;;;;11.00;9.93;;;;;;;10.44;100.00;98885.66;5108471;28;20202;-54
2023/04/21 03:05:36;;;;;;;15.17;9.60;;;;;;;10.38;100.00;98890.22;5107422;28;20283;-54
2023/04/21 03:08:05;;;;;;;12.77;9.70;;;;;;;10.39;100.00;98886.72;5110320;28;20213;-54
2023/04/21 03:10:45;;;;;;;11.33;9.77;;;;;;;10.45;100.00;98887.34;5108407;28;20199;-54
2023/04/21 03:13:15;;;;;;;9.50;8.53;;;;;;;10.48;100.00;98887.22;5108214;28;20204;-54
2023/04/21 03:16:09;;;;;;;9.70;8.80;;;;;;;10.53;100.00;98895.66;5110531;28;20199;-54
2023/04/21 03:18:51;;;;;;;13.00;10.40;;;;;;;10.46;100.00;98895.97;5109101;28;20218;-54
2023/04/21 03:21:26;;;;;;;11.27;10.07;;;;;;;10.39;100.00;98899.69;5109048;28;20283;-50
2023/04/21 03:24:01;;;;;;;11.47;9.90;;;;;;;10.38;100.00;98887.63;5108064;28;20593;-50
2023/04/21 03:26:32;;;;;;;13.17;10.40;;;;;;;10.43;100.00;98898.66;5110672;28;20193;-49
2023/04/21 03:29:04;;;;;;;12.27;10.60;;;;;;;10.44;100.00;98898.63;5107047;28;20186;-50
2023/04/21 03:31:37;;;;;;;14.03;9.83;;;;;;;10.44;100.00;98902.97;5107026;28;20195;-50
2023/04/21 03:34:07;;;;;;;12.07;10.77;;;;;;;10.46;100.00;98903.75;5106157;28;20203;-51
2023/04/21 03:36:46;;;;;;;14.37;10.83;;;;;;;10.46;100.00;98901.16;5105871;28;20251;-51
2023/04/21 03:39:23;;;;;;;17.30;10.50;;;;;;;10.47;100.00;98905.44;5107083;28;20305;-50
2023/04/21 03:41:55;;;;;;;11.73;10.53;;;;;;;10.45;100.00;98907.25;5108001;28;20199;-51
2023/04/21 03:44:28;;;;;;;12.93;10.67;;;;;;;10.46;100.00;98914.13;5107637;28;20230;-50
2023/04/21 03:47:07;;;;;;;13.23;11.23;;;;;;;10.45;100.00;98921.06;5105122;28;20198;-54
2023/04/21 03:49:38;;;;;;;16.33;11.77;;;;;;;10.49;100.00;98914.03;5105103;28;20195;-51
2023/04/21 03:52:09;;;;;;;14.57;11.27;;;;;;;10.54;100.00;98917.28;5103103;28;20598;-54
2023/04/21 03:54:46;;;;;;;14.53;11.00;;;;;;;10.56;100.00;98912.88;5103559;28;20279;-54
2023/04/21 03:57:20;;;;;;;11.90;10.80;;;;;;;10.72;100.00;98915.72;5108000;28;20613;-54
2023/04/21 03:59:52;;;;;;;12.03;10.83;;;;;;;10.75;100.00;98916.44;5110303;28;20202;-55
2023/04/21 04:02:28;;;;;;;12.23;10.60;;;;;;;10.71;100.00;98920.06;5107093;28;20191;-50
2023/04/21 04:05:14;;;;;;;12.37;10.97;;;;;;;10.78;100.00;98918.91;5109896;28;20205;-51
2023/04/21 04:08:02;;;;;;;15.10;11.73;;;;;;;10.91;100.00;98916.69;5110335;28;20194;-50
2023/04/21 04:10:31;;;;;;;17.30;11.07;;;;;;;11.04;100.00;98917.91;5058620;28;20240;-51
2023/04/21 04:13:12;;;;;;;13.20;11.47;;;;;;;11.26;100.00;98918.72;5069037;28;20228;-50
2023/04/21 04:15:57;;;;;;;12.03;10.83;;;;;;;11.98;100.00;98913.06;5068526;28;20682;-51
2023/04/21 04:18:38;;;;;;;12.03;10.70;;;;;;;13.21;100.00;98920.34;5054464;28;20216;-51
2023/04/21 04:21:16;;;;;;;11.37;10.27;;;;;;;14.49;100.00;98927.66;5048541;28;20200;-51
2023/04/21 04:23:46;;;;;;;13.77;10.47;;;;;;;16.00;100.00;98934.72;5048779;28;20197;-51
2023/04/21 04:26:25;;;;;;;10.37;8.97;;;;;;;17.03;100.00;98951.03;5049285;28;20197;-54
2023/04/21 04:28:59;;;;;;;10.50;9.50;;;;;;;18.32;100.00;98957.25;5048318;28;20247;-55
2023/04/21 04:31:36;;;;;;;10.18;8.35;;;;;;;19.43;93.69;98958.00;5049397;28;20208;-54
2023/04/21 04:34:10;;;;;;;9.75;8.85;;;;;;;20.05;89.23;98970.09;5048952;28;20592;-54
2023/04/21 04:37:02;;;;;;;10.25;8.95;;;;;;;21.03;80.12;98964.94;5049091;28;20196;-54
2023/04/21 04:39:49;;;;;;;9.52;8.55;;;;;;;21.58;76.57;98980.75;5048995;28;20289;-54
2023/04/21 04:42:27;;;;;;;10.93;9.38;;;;;;;22.51;73.06;98983.50;5049116;28;20231;-54
2023/04/21 04:45:13;;;;;;;12.98;10.35;;;;;;;22.65;70.88;98988.44;5048847;28;20226;-52
2023/04/21 04:47:58;;;;;;;9.70;8.90;;;;;;;23.05;68.66;98977.84;5048772;28;20761;-52
2023/04/21 04:50:37;;;;;;;9.68;8.60;;;;;;;23.77;65.84;98983.66;5048702;28;20703;-53
2023/04/21 04:53:12;;;;;;;9.63;8.55;;;;;;;24.81;62.00;98995.16;5048511;28;20201;-52
2023/04/21 04:55:52;;;;;;;9.27;8.55;;;;;;;25.38;58.13;99002.00;5054164;28;20196;-52
2023/04/21 04:58:26;;;;;;;8.98;8.02;;;;;;;25.86;55.11;99001.63;5067436;28;20206;-55
2023/04/21 05:01:21;;;;;;;10.27;9.40;;;;;;;26.34;52.77;98993.19;5068806;28;20253;-55
2023/04/21 05:04:04;;;;;;;12.00;8.65;;;;;;;26.94;50.98;98997.69;5068194;28;20575;-53
2023/04/21 05:06:32;;;;;;;9.45;8.57;;;;;;;27.82;47.60;98996.25;5068559;28;20222;-53
2023/04/21 05:09:16;;;;;;;9.10;8.38;;;;;;;28.33;45.47;99004.91;5087678;28;20252;-52
2023/04/21 05:12:04;;;;;;;9.73;8.23;;;;;;;28.46;43.99;99003.38;5109093;28;20233;-52
2023/04/21 05:14:43;;;;;;;8.27;7.68;;;;;;;28.41;43.76;99002.22;5108587;28;20195;-54
2023/04/21 05:17:26;;;;;;;14.63;8.05;;;;;;;27.67;43.78;99004.06;5105218;28;20650;-54
2023/04/21 05:20:12;;;;;;;11.32;8.30;;;;;;;27.36;45.19;99009.16;5087171;28;20231;-55
2023/04/21 05:22:52;;;;;;;9.05;8.25;;;;;;;27.46;43.96;98996.50;5091478;28;20238;-53
2023/04/21 05:25:30;;;;;;;9.02;8.18;;;;;;;27.86;43.19;98997.59;5109052;28;20671;-56
2023/04/21 05:28:10;;;;;;;8.60;7.70;;;;;;;27.92;42.75;98998.72;5099598;28;20222;-55
2023/04/21 05:30:56;;;;;;;9.25;8.50;;;;;;;27.34;43.72;98989.81;5107957;28;20305;-54
2023/04/21 05:33:30;;;;;;;8.48;7.88;;;;;;;26.98;44.16;98991.03;5107803;28;20226;-54
2023/04/21 05:36:08;;;;;;;8.88;7.88;;;;;;;26.84;43.57;98987.16;5107979;28;20706;-55
2023/04/21 05:38:38;;;;;;;8.45;7.68;;;;;;;26.69;43.48;98994.88;5107441;28;20218;-55
2023/04/21 05:41:11;;;;;;;8.75;7.47;;;;;;;27.04;42.51;98985.91;5107216;28;20218;-55
2023/04/21 05:44:07;;;;;;;8.13;7.40;;;;;;;28.08;40.96;98988.91;5094003;28;20211;-52
2023/04/21 05:47:06;;;;;;;7.72;7.00;;;;;;;29.03;38.41;98986.34;5088145;28;20278;-53
2023/04/21 05:49:41;;;;;;;6.30;5.90;;;;;;;30.45;35.99;98994.66;5089188;28;20231;-53
2023/04/21 05:52:24;;;;;;;7.55;6.88;;;;;;;29.65;35.76;98975.63;5106134;28;20202;-55
2023/04/21 05:55:16;;;;;;;7.43;6.80;;;;;;;28.85;36.72;98979.41;5108847;28;20201;-55
2023/04/21 05:57:51;;;;;;;7.75;7.15;;;;;;;28.13;37.62;98978.53;5109201;28;20198;-55
2023/04/21 06:00:53;;;;;;;7.20;6.78;;;;;;;27.70;38.25;98974.41;5107467;28;20583;-54
2023/04/21 06:03:54;;;;;;;7.55;6.40;;;;;;;27.53;38.74;98971.88;5106765;28;20198;-53
2023/04/21 06:06:55;;;;;;;7.30;6.80;;;;;;;27.34;39.08;98967.66;5108470;28;20198;-53
2023/04/21 06:09:44;;;;;;;7.88;6.57;;;;;;;27.06;39.58;98965.28;5107098;28;20226;-53
2023/04/21 06:15:44;;;;;;;6.60;6.15;;;;;;;27.78;38.04;98963.72;5094270;28;20230;-53
2023/04/21 06:18:31;;;;;;;6.93;6.32;;;;;;;27.98;38.11;98971.41;5108816;28;20198;-53
2023/04/21 06:21:10;;;;;;;7.18;6.38;;;;;;;28.56;36.44;98978.34;5106792;28;20194;-54
2023/04/21 06:24:05;;;;;;;6.55;5.95;;;;;;;29.25;34.70;98974.84;5108665;28;20670;-54
2023/04/21 06:26:53;;;;;;;9.55;6.35;;;;;;;29.25;34.60;98967.66;5109785;28;20206;-52
2023/04/21 06:29:46;;;;;;;7.35;6.43;;;;;;;29.06;34.73;98964.63;5112783;28;20279;-53
2023/04/21 06:32:38;;;;;;;6.25;5.43;;;;;;;29.16;34.17;98966.06;5111478;28;20194;-53
2023/04/21 06:35:29;;;;;;;7.80;7.10;;;;;;;29.17;33.50;98964.22;5111662;28;20198;-55
2023/04/21 06:38:21;;;;;;;7.13;6.40;;;;;;;30.11;32.20;98965.72;5112562;28;20666;-56
2023/04/21 06:41:05;;;;;;;6.70;5.85;;;;;;;30.03;32.17;98958.59;5111548;28;20199;-54
2023/04/21 06:43:38;;;;;;;7.40;6.68;;;;;;;28.95;33.37;98965.84;5112539;28;20201;-55
2023/04/21 06:46:11;;;;;;;10.00;7.07;;;;;;;28.45;33.85;98966.16;5112137;28;20198;-55
2023/04/21 06:49:07;;;;;;;6.57;6.15;;;;;;;29.22;33.46;98957.34;5112438;28;20200;-55
2023/04/21 06:52:10;;;;;;;10.27;7.13;;;;;;;29.79;32.15;98965.00;5111166;28;20561;-53
2023/04/21 06:54:58;;;;;;;9.98;9.15;;;;;;;29.79;32.16;98967.66;5112275;28;20726;-53
2023/04/21 07:00:37;;;;;;;9.57;8.68;;;;;;;30.21;32.39;98975.16;5110542;28;20323;-53
2023/04/21 07:03:32;;;;;;;8.95;8.27;;;;;;;30.86;31.42;98982.50;5111560;28;20670;-54
2023/04/21 07:06:31;;;;;;;9.57;8.68;;;;;;;31.47;30.39;98974.97;5109216;28;20206;-54
2023/04/21 07:09:32;;;;;;;11.13;9.10;;;;;;;31.21;30.19;98977.38;5111329;28;20230;-55
2023/04/21 07:15:13;;;;;;;11.07;10.05;;;;;;;31.22;30.38;98982.56;5112013;28;20289;-56
2023/04/21 07:18:00;;;;;;;10.00;8.55;;;;;;;31.76;29.67;98990.13;5112015;28;20198;-56
2023/04/21 07:20:41;;;;;;;9.77;8.63;;;;;;;32.23;28.72;98980.66;5111113;28;20194;-55
2023/04/21 07:23:30;;;;;;;10.57;7.03;;;;;;;32.38;28.29;98970.63;5109604;28;20224;-56
2023/04/21 07:26:03;;;;;;;7.97;7.15;;;;;;;32.58;28.60;98979.66;5091242;27;20734;-55
2023/04/21 07:28:52;;;;;;;11.57;10.63;;;;;;;32.61;28.82;98967.69;5090925;28;20211;-54
2023/04/21 07:31:32;;;;;;;11.63;10.23;;;;;;;32.58;28.79;98968.88;5092576;28;20461;-56
2023/04/21 07:34:23;;;;;;;7.82;6.90;;;;;;;32.26;28.76;98973.03;5110524;28;20194;-56
2023/04/21 07:37:15;;;;;;;7.78;7.05;;;;;;;33.11;28.05;98972.66;5111535;28;20202;-59
2023/04/21 07:40:16;;;;;;;11.07;7.45;;;;;;;32.93;28.29;98977.78;5111080;27;20729;-56
2023/04/21 07:43:05;;;;;;;9.90;6.97;;;;;;;32.63;28.04;98973.66;5110485;28;20669;-56
2023/04/21 07:45:51;;;;;;;8.43;7.70;;;;;;;32.26;28.69;98964.97;5111269;28;20194;-56
2023/04/21 07:48:29;;;;;;;8.85;7.97;;;;;;;32.13;28.76;98954.13;5110052;28;20289;-53
2023/04/21 07:51:14;;;;;;;9.63;8.68;;;;;;;31.52;29.70;98959.13;5090103;28;20685;-56
2023/04/21 07:54:02;;;;;;;9.38;8.48;;;;;;;31.03;30.65;98967.88;5090488;28;20272;-56
2023/04/21 07:57:07;;;;;;;12.30;11.05;;;;;;;30.84;30.45;98956.88;5092859;28;20299;-56
2023/04/21 08:00:00;;;;;;;11.95;10.55;;;;;;;30.79;30.80;98962.81;5111158;28;20197;-56
2023/04/21 08:02:52;;;;;;;9.13;8.13;;;;;;;30.42;31.35;98954.88;5110333;28;20281;-55
2023/04/21 08:08:20;;;;;;;8.38;7.78;;;;;;;31.07;30.50;98952.22;5090785;28;20227;-53
2023/04/21 08:11:08;;;;;;;9.07;8.38;;;;;;;31.82;29.56;98946.44;5089585;28;20706;-52
2023/04/21 08:14:02;;;;;;;9.52;8.63;;;;;;;32.07;29.57;98952.19;5089265;28;20304;-53
2023/04/21 08:16:36;;;;;;;10.82;8.30;;;;;;;32.84;28.57;98957.47;5110180;28;20656;-52
2023/04/21 08:19:12;;;;;;;9.15;8.00;;;;;;;32.60;28.66;98947.19;5109768;28;20586;-52
2023/04/21 08:21:50;;;;;;;11.98;10.50;;;;;;;32.70;28.33;98945.81;5109810;28;20275;-52
2023/04/21 08:24:39;;;;;;;9.77;8.77;;;;;;;33.55;27.48;98952.50;5110336;28;20721;-52
2023/04/21 08:27:26;;;;;;;8.50;7.50;;;;;;;33.87;25.91;98953.59;5108748;28;20194;-52
2023/04/21 08:30:17;;;;;;;8.48;7.60;;;;;;;33.59;25.68;98956.47;5109952;28;20693;-53
2023/04/21 08:33:12;;;;;;;7.70;6.90;;;;;;;33.93;25.78;98952.78;5109861;27;20289;-52
2023/04/21 08:36:01;;;;;;;8.82;8.15;;;;;;;33.90;25.39;98958.56;5109796;28;20666;-52
2023/04/21 08:41:46;;;;;;;8.35;7.65;;;;;;;33.58;25.91;98960.19;5109689;28;20667;-52
2023/04/21 08:47:46;;;;;;;7.45;6.93;;;;;;;33.55;25.93;98949.81;5110222;28;20206;-52
2023/04/21 08:50:35;;;;;;;6.72;6.22;;;;;;;32.63;25.98;98952.16;5109466;28;20301;-51
2023/04/21 08:53:29;;;;;;;7.20;6.70;;;;;;;31.25;27.67;98946.50;5108712;27;20194;-52
2023/04/21 08:56:20;;;;;;;7.40;6.78;;;;;;;30.21;29.62;98924.31;5109772;28;20202;-52
2023/04/21 08:59:05;;;;;;;8.52;7.40;;;;;;;29.37;29.74;98936.03;5108997;28;20230;-52
2023/04/21 09:02:17;;;;;;;7.15;6.32;;;;;;;29.49;29.98;98937.28;5110029;28;20186;-52
2023/04/21 09:05:12;;;;;;;7.63;6.65;;;;;;;29.30;30.14;98931.56;5105588;28;20557;-51
2023/04/21 09:08:04;;;;;;;6.22;5.60;;;;;;;29.56;29.59;98930.25;5109233;28;20195;-52
2023/04/21 09:11:04;;;;;;;9.95;6.80;;;;;;;29.32;30.70;98922.38;5109368;28;20299;-52
2023/04/21 09:14:08;;;;;;;7.28;6.40;;;;;;;29.34;30.42;98923.03;5110025;28;20191;-52
2023/04/21 09:20:11;;;;;;;7.32;6.70;;;;;;;30.38;28.90;98910.72;5110128;28;20633;-52
2023/04/21 09:23:09;;;;;;;12.57;6.03;;;;;;;30.81;28.60;98903.69;5109658;28;20212;-52
2023/04/21 09:25:54;;;;;;;6.88;6.15;;;;;;;32.22;26.59;98899.25;5110058;28;20576;-53
2023/04/21 09:28:44;;;;;;;6.28;5.32;;;;;;;33.30;25.25;98905.69;5093407;28;20279;-53
2023/04/21 09:31:34;;;;;;;6.35;5.85;;;;;;;33.39;25.33;98907.19;5087747;28;20648;-53
2023/04/21 09:34:29;;;;;;;5.55;5.05;;;;;;;34.18;24.10;98897.25;5086741;28;20195;-53
2023/04/21 09:37:23;;;;;;;6.50;6.00;;;;;;;34.63;23.96;98901.91;5087824;28;20196;-53
2023/04/21 09:40:11;;;;;;;6.05;5.50;;;;;;;34.97;23.56;98896.16;5088501;28;20253;-53
2023/04/21 09:43:07;;;;;;;5.47;5.03;;;;;;;35.51;23.08;98894.78;5088137;28;20205;-52
2023/04/21 09:45:54;;;;;;;7.05;6.35;;;;;;;36.25;22.34;98896.63;5079855;28;20200;-54
2023/04/21 09:51:49;;;;;;;6.07;5.47;;;;;;;36.77;22.01;98889.81;5075027;28;20247;-57
2023/04/21 09:55:03;;;;;;;7.70;6.50;;;;;;;37.03;21.99;98892.16;5085541;28;20190;-53
2023/04/21 09:57:47;;;;;;;10.38;6.45;;;;;;;36.68;21.59;98891.97;5075672;28;20239;-53
2023/04/21 10:00:27;;;;;;;6.28;5.45;;;;;;;36.79;21.52;98889.59;5067424;28;20207;-54
2023/04/21 10:03:11;;;;;;;6.25;5.68;;;;;;;35.99;22.12;98878.81;5071777;28;20206;-54
2023/04/21 10:05:46;;;;;;;7.40;6.30;;;;;;;35.23;22.77;98879.78;5072034;28;20192;-53
2023/04/21 10:08:19;;;;;;;5.88;5.47;;;;;;;34.50;23.35;98859.66;5072510;28;20277;-52
2023/04/21 10:10:53;;;;;;;5.60;5.18;;;;;;;34.30;23.75;98873.19;5052812;28;20763;-53
2023/04/21 10:13:24;;;;;;;4.65;4.30;;;;;;;34.15;22.94;98868.03;5052978;28;20199;-52
2023/04/21 10:16:19;;;;;;;5.32;4.78;;;;;;;34.16;23.49;98858.06;5052605;28;20305;-55
2023/04/21 10:19:11;;;;;;;4.80;4.40;;;;;;;34.27;23.52;98862.84;5053077;28;20726;-56
2023/04/21 10:21:53;;;;;;;6.03;4.90;;;;;;;33.32;24.24;98828.31;5052559;28;20197;-59
2023/04/21 10:24:43;;;;;;;5.07;4.78;;;;;;;30.93;26.33;98846.72;5065519;28;20199;-56
2023/04/21 10:27:41;;;;;;;5.15;4.75;;;;;;;28.76;28.64;98836.19;5069793;28;20218;-56
2023/04/21 10:30:43;;;;;;;5.45;5.00;;;;;;;27.71;30.22;98828.56;5069693;28;20210;-56
2023/04/21 10:33:35;;;;;;;5.00;4.70;;;;;;;27.25;31.36;98827.41;5069987;28;20642;-56
2023/04/21 10:36:20;;;;;;;5.35;4.97;;;;;;;26.41;32.27;98828.44;5068331;28;20667;-53
2023/04/21 10:39:07;;;;;;;7.00;4.50;;;;;;;26.10;33.07;98816.63;5069375;28;20200;-56
2023/04/21 10:41:54;;;;;;;5.50;5.07;;;;;;;26.02;34.37;98815.59;5070381;28;20238;-56
2023/04/21 10:44:40;;;;;;;4.75;4.35;;;;;;;26.07;33.29;98815.13;5071933;28;20207;-56
2023/04/21 10:47:33;;;;;;;5.20;4.80;;;;;;;26.16;33.42;98819.50;5071993;28;20207;-56
2023/04/21 10:50:19;;;;;;;4.70;4.40;;;;;;;26.11;32.72;98821.78;5070671;28;20215;-55
2023/04/21 10:53:12;;;;;;;4.68;4.38;;;;;;;25.73;33.27;98820.44;5068560;28;20672;-55
2023/04/21 10:55:52;;;;;;;4.88;4.47;;;;;;;25.26;34.33;98826.06;5070278;28;20200;-56
2023/04/21 10:58:41;;;;;;;4.85;4.55;;;;;;;25.02;34.03;98817.88;5071207;28;20192;-53
2023/04/21 11:01:18;;;;;;;5.03;4.57;;;;;;;24.54;34.50;98821.69;5070911;28;20577;-56
2023/04/21 11:03:57;;;;;;;7.15;4.18;;;;;;;24.27;35.18;98832.28;5070358;28;20195;-53
2023/04/21 11:06:40;;;;;;;4.72;3.90;;;;;;;23.70;37.50;98834.16;5069088;28;20195;-53
2023/04/21 11:09:11;;;;;;;5.93;3.45;;;;;;;23.26;39.13;98822.34;5078335;28;20218;-53
2023/04/21 11:11:48;;;;;;;5.97;3.95;;;;;;;22.86;40.26;98830.47;5110355;28;20214;-52
2023/04/21 11:14:28;;;;;;;4.47;4.10;;;;;;;22.95;40.07;98816.38;5107718;28;20613;-53
2023/04/21 11:17:23;;;;;;;7.35;4.22;;;;;;;23.11;40.35;98816.69;5105673;28;20212;-55
2023/04/21 11:20:02;;;;;;;6.68;4.55;;;;;;;23.18;40.50;98812.47;5107510;28;20190;-55
2023/04/21 11:22:37;;;;;;;4.07;3.33;;;;;;;23.02;39.67;98827.28;5110506;28;20186;-55
2023/04/21 11:25:21;;;;;;;4.05;3.75;;;;;;;22.87;40.73;98826.00;5110367;28;20194;-55
2023/04/21 11:28:05;;;;;;;4.03;3.20;;;;;;;22.89;40.65;98811.66;5110199;28;20273;-55
2023/04/21 11:30:49;;;;;;;3.92;3.58;;;;;;;23.18;40.01;98823.06;5107961;28;20222;-55
2023/04/21 11:33:28;;;;;;;4.50;4.10;;;;;;;23.38;39.73;98823.03;5108070;28;20624;-56
2023/04/21 11:36:18;;;;;;;6.10;4.35;;;;;;;23.42;39.66;98819.13;5107357;28;20225;-54
2023/04/21 11:38:51;;;;;;;4.68;4.28;;;;;;;23.50;39.21;98820.13;5109687;28;20190;-55
2023/04/21 11:41:30;;;;;;;4.00;3.80;;;;;;;23.57;37.99;98828.34;5108340;28;20187;-55
2023/04/21 11:44:04;;;;;;;4.53;4.10;;;;;;;23.30;38.78;98825.56;5106139;28;20190;-55
2023/04/21 11:46:38;;;;;;;7.50;3.90;;;;;;;23.01;39.21;98831.72;5106816;28;20195;-56
2023/04/21 11:49:31;;;;;;;11.45;4.63;;;;;;;22.75;43.92;98822.63;5110222;28;20223;-52
2023/04/21 11:52:09;;;;;;;6.00;5.50;;;;;;;22.72;44.63;98809.66;5107718;28;20679;-52
2023/04/21 11:54:47;;;;;;;7.80;5.00;;;;;;;22.77;42.01;98818.91;5107617;28;20277;-51
2023/04/21 11:57:26;;;;;;;6.40;5.10;;;;;;;22.79;41.97;98822.25;5108073;28;20198;-53
2023/04/21 12:00:10;;;;;;;7.60;4.20;;;;;;;22.85;40.01;98815.56;5107017;28;20194;-51
2023/04/21 12:02:57;;;;;;;4.45;4.10;;;;;;;23.01;39.75;98818.50;5108677;28;20218;-54
2023/04/21 12:05:39;;;;;;;4.63;4.28;;;;;;;23.01;40.17;98810.56;5109262;28;20585;-53
2023/04/21 12:08:22;;;;;;;6.80;5.70;;;;;;;23.09;39.71;98813.31;5109691;28;20194;-53
2023/04/21 12:11:01;;;;;;;5.75;5.28;;;;;;;23.21;40.33;98816.66;5066598;28;20277;-54
2023/04/21 12:13:39;;;;;;;5.50;5.10;;;;;;;23.18;40.17;98815.13;5066662;28;20188;-52
2023/04/21 12:16:20;;;;;;;5.70;4.70;;;;;;;23.29;39.49;98813.31;5069055;28;20192;-53
2023/04/21 12:18:51;;;;;;;4.75;4.35;;;;;;;23.48;38.52;98813.25;5066313;28;20192;-54
2023/04/21 12:21:32;;;;;;;5.30;4.20;;;;;;;23.28;38.38;98801.88;5068951;28;20414;-55
2023/04/21 12:24:10;;;;;;;7.22;5.32;;;;;;;23.09;39.12;98791.31;5067114;28;20309;-53
2023/04/21 12:26:47;;;;;;;5.05;4.68;;;;;;;22.93;39.76;98802.44;5069352;28;20668;-53
2023/04/21 12:29:24;;;;;;;5.43;4.65;;;;;;;22.84;40.48;98799.81;5065733;28;20218;-55
2023/04/21 12:32:01;;;;;;;5.95;5.53;;;;;;;22.83;41.66;98796.31;5066500;28;20210;-56
2023/04/21 12:34:42;;;;;;;5.30;4.80;;;;;;;22.85;41.50;98796.19;5066214;28;20188;-55
2023/04/21 12:37:27;;;;;;;21.02;15.68;;;;;;;22.89;40.62;98811.66;5065886;28;20711;-54
2023/04/21 12:40:21;;;;;;;8.40;6.22;;;;;;;22.88;39.49;98825.88;5049430;28;20619;-52
2023/04/21 12:43:11;;;;;;;5.70;4.93;;;;;;;22.61;41.13;98817.72;5049868;28;20196;-55
2023/04/21 12:45:55;;;;;;;5.22;4.72;;;;;;;21.92;44.47;98820.25;5049595;28;20210;-56
2023/04/21 12:48:43;;;;;;;6.07;5.43;;;;;;;21.40;46.22;98832.63;5069215;28;20200;-53
2023/04/21 12:54:53;;;;;;;3.92;3.65;;;;;;;20.85;47.07;98842.47;5068571;28;20203;-52
2023/04/21 13:00:35;;;;;;;5.03;4.18;;;;;;;19.98;46.64;98811.66;5067705;28;20199;-55
2023/04/21 13:03:21;;;;;;;4.80;4.40;;;;;;;19.85;47.61;98813.59;5068534;28;20680;-55
2023/04/21 13:06:07;;;;;;;3.15;2.95;;;;;;;19.81;46.57;98801.63;5069257;28;20253;-55
2023/04/21 13:08:46;;;;;;;2.72;2.63;;;;;;;19.94;45.85;98791.81;5052746;28;20221;-53
